sensor_id;sensor_type;location;lat;lon;timestamp;P1;durP1;ratioP1;P2;durP2;ratioP2
8419;SDS011;4247;48.550;8.822;2023-06-10T00:00:02;4.93;;;2.73;;
8419;SDS011;4247;48.550;8.822;2023-06-10T00:02:30;3.40;;;3.10;;
8419;SDS011;4247;48.550;8.822;2023-06-10T00:04:57;3.73;;;2.80;;
8419;SDS011;4247;48.550;8.822;2023-06-10T00:07:24;3.23;;;2.47;;
8419;SDS011;4247;48.550;8.822;2023-06-10T00:09:51;3.40;;;3.20;;
8419;SDS011;4247;48.550;8.822;2023-06-10T00:12:18;4.43;;;2.43;;
8419;SDS011;4247;48.550;8.822;2023-06-10T00:14:46;2.70;;;2.50;;
8419;SDS011;4247;48.550;8.822;2023-06-10T00:17:15;2.83;;;2.63;;
8419;SDS011;4247;48.550;8.822;2023-06-10T00:19:41;2.93;;;2.73;;
8419;SDS011;4247;48.550;8.822;2023-06-10T00:22:08;3.77;;;3.10;;
8419;SDS011;4247;48.550;8.822;2023-06-10T00:24:35;4.50;;;2.97;;
8419;SDS011;4247;48.550;8.822;2023-06-10T00:27:02;3.23;;;2.93;;
8419;SDS011;4247;48.550;8.822;2023-06-10T00:29:30;6.67;;;3.30;;
8419;SDS011;4247;48.550;8.822;2023-06-10T00:31:58;3.07;;;2.80;;
8419;SDS011;4247;48.550;8.822;2023-06-10T00:34:25;5.17;;;3.33;;
8419;SDS011;4247;48.550;8.822;2023-06-10T00:36:52;3.03;;;2.63;;
8419;SDS011;4247;48.550;8.822;2023-06-10T00:39:18;3.57;;;3.27;;
8419;SDS011;4247;48.550;8.822;2023-06-10T00:41:45;4.37;;;3.97;;
8419;SDS011;4247;48.550;8.822;2023-06-10T00:44:12;3.47;;;3.27;;
8419;SDS011;4247;48.550;8.822;2023-06-10T00:46:39;4.63;;;3.90;;
8419;SDS011;4247;48.550;8.822;2023-06-10T00:49:07;4.67;;;3.90;;
8419;SDS011;4247;48.550;8.822;2023-06-10T00:51:34;3.80;;;3.50;;
8419;SDS011;4247;48.550;8.822;2023-06-10T00:54:01;5.60;;;4.07;;
8419;SDS011;4247;48.550;8.822;2023-06-10T00:56:29;5.97;;;3.90;;
8419;SDS011;4247;48.550;8.822;2023-06-10T00:58:56;3.83;;;3.33;;
8419;SDS011;4247;48.550;8.822;2023-06-10T01:01:23;4.17;;;3.83;;
8419;SDS011;4247;48.550;8.822;2023-06-10T01:03:50;3.50;;;3.00;;
8419;SDS011;4247;48.550;8.822;2023-06-10T01:06:21;6.63;;;3.20;;
8419;SDS011;4247;48.550;8.822;2023-06-10T01:08:55;3.87;;;3.53;;
8419;SDS011;4247;48.550;8.822;2023-06-10T01:11:28;3.97;;;3.67;;
8419;SDS011;4247;48.550;8.822;2023-06-10T01:14:01;6.03;;;3.40;;
8419;SDS011;4247;48.550;8.822;2023-06-10T01:16:30;5.53;;;3.73;;
8419;SDS011;4247;48.550;8.822;2023-06-10T01:18:57;3.67;;;3.23;;
8419;SDS011;4247;48.550;8.822;2023-06-10T01:21:26;4.13;;;3.83;;
8419;SDS011;4247;48.550;8.822;2023-06-10T01:23:53;5.00;;;4.10;;
8419;SDS011;4247;48.550;8.822;2023-06-10T01:26:24;3.57;;;3.30;;
8419;SDS011;4247;48.550;8.822;2023-06-10T01:28:57;4.03;;;3.63;;
8419;SDS011;4247;48.550;8.822;2023-06-10T01:31:29;3.63;;;3.33;;
8419;SDS011;4247;48.550;8.822;2023-06-10T01:34:02;3.50;;;3.20;;
8419;SDS011;4247;48.550;8.822;2023-06-10T01:36:34;3.33;;;2.93;;
8419;SDS011;4247;48.550;8.822;2023-06-10T01:39:02;3.33;;;3.03;;
8419;SDS011;4247;48.550;8.822;2023-06-10T01:41:31;3.07;;;2.83;;
8419;SDS011;4247;48.550;8.822;2023-06-10T01:43:58;3.53;;;3.20;;
8419;SDS011;4247;48.550;8.822;2023-06-10T01:46:25;4.23;;;3.30;;
8419;SDS011;4247;48.550;8.822;2023-06-10T01:48:52;3.20;;;2.90;;
8419;SDS011;4247;48.550;8.822;2023-06-10T01:51:18;5.03;;;3.10;;
8419;SDS011;4247;48.550;8.822;2023-06-10T01:53:46;3.30;;;3.00;;
8419;SDS011;4247;48.550;8.822;2023-06-10T01:56:13;3.87;;;3.47;;
8419;SDS011;4247;48.550;8.822;2023-06-10T01:58:43;4.53;;;3.70;;
8419;SDS011;4247;48.550;8.822;2023-06-10T02:01:09;4.40;;;3.80;;
8419;SDS011;4247;48.550;8.822;2023-06-10T02:03:36;4.00;;;3.60;;
8419;SDS011;4247;48.550;8.822;2023-06-10T02:06:03;4.57;;;3.93;;
8419;SDS011;4247;48.550;8.822;2023-06-10T02:08:30;4.03;;;3.50;;
8419;SDS011;4247;48.550;8.822;2023-06-10T02:10:58;4.53;;;3.77;;
8419;SDS011;4247;48.550;8.822;2023-06-10T02:13:24;5.47;;;4.03;;
8419;SDS011;4247;48.550;8.822;2023-06-10T02:15:51;4.33;;;3.93;;
8419;SDS011;4247;48.550;8.822;2023-06-10T02:18:19;3.87;;;3.57;;
8419;SDS011;4247;48.550;8.822;2023-06-10T02:20:46;7.47;;;3.90;;
8419;SDS011;4247;48.550;8.822;2023-06-10T02:23:13;4.10;;;3.60;;
8419;SDS011;4247;48.550;8.822;2023-06-10T02:25:40;4.73;;;4.23;;
8419;SDS011;4247;48.550;8.822;2023-06-10T02:28:08;4.40;;;4.00;;
8419;SDS011;4247;48.550;8.822;2023-06-10T02:30:35;6.67;;;3.87;;
8419;SDS011;4247;48.550;8.822;2023-06-10T02:33:04;5.37;;;3.53;;
8419;SDS011;4247;48.550;8.822;2023-06-10T02:35:34;5.73;;;4.17;;
8419;SDS011;4247;48.550;8.822;2023-06-10T02:38:01;5.37;;;3.97;;
8419;SDS011;4247;48.550;8.822;2023-06-10T02:40:29;4.53;;;4.07;;
8419;SDS011;4247;48.550;8.822;2023-06-10T02:42:55;4.87;;;4.00;;
8419;SDS011;4247;48.550;8.822;2023-06-10T02:45:24;4.47;;;3.90;;
8419;SDS011;4247;48.550;8.822;2023-06-10T02:47:50;3.90;;;3.50;;
8419;SDS011;4247;48.550;8.822;2023-06-10T02:50:17;3.50;;;3.17;;
8419;SDS011;4247;48.550;8.822;2023-06-10T02:52:44;4.07;;;3.67;;
8419;SDS011;4247;48.550;8.822;2023-06-10T02:55:11;3.40;;;3.10;;
8419;SDS011;4247;48.550;8.822;2023-06-10T02:57:37;3.83;;;3.40;;
8419;SDS011;4247;48.550;8.822;2023-06-10T03:00:05;4.90;;;3.83;;
8419;SDS011;4247;48.550;8.822;2023-06-10T03:02:36;4.40;;;4.00;;
8419;SDS011;4247;48.550;8.822;2023-06-10T03:05:03;3.27;;;2.97;;
8419;SDS011;4247;48.550;8.822;2023-06-10T03:07:34;3.87;;;3.50;;
8419;SDS011;4247;48.550;8.822;2023-06-10T03:10:01;3.40;;;3.10;;
8419;SDS011;4247;48.550;8.822;2023-06-10T03:12:28;4.07;;;3.67;;
8419;SDS011;4247;48.550;8.822;2023-06-10T03:14:55;5.10;;;3.00;;
8419;SDS011;4247;48.550;8.822;2023-06-10T03:17:22;4.70;;;3.77;;
8419;SDS011;4247;48.550;8.822;2023-06-10T03:19:50;6.30;;;3.30;;
8419;SDS011;4247;48.550;8.822;2023-06-10T03:22:17;5.20;;;3.00;;
8419;SDS011;4247;48.550;8.822;2023-06-10T03:24:44;5.97;;;3.30;;
8419;SDS011;4247;48.550;8.822;2023-06-10T03:27:11;3.37;;;3.10;;
8419;SDS011;4247;48.550;8.822;2023-06-10T03:29:38;3.93;;;3.63;;
8419;SDS011;4247;48.550;8.822;2023-06-10T03:32:05;4.07;;;3.67;;
8419;SDS011;4247;48.550;8.822;2023-06-10T03:34:33;5.00;;;3.17;;
8419;SDS011;4247;48.550;8.822;2023-06-10T03:37:01;6.40;;;3.60;;
8419;SDS011;4247;48.550;8.822;2023-06-10T03:39:28;5.07;;;3.20;;
8419;SDS011;4247;48.550;8.822;2023-06-10T03:41:54;4.53;;;4.13;;
8419;SDS011;4247;48.550;8.822;2023-06-10T03:44:22;5.23;;;3.90;;
8419;SDS011;4247;48.550;8.822;2023-06-10T03:46:48;3.93;;;3.53;;
8419;SDS011;4247;48.550;8.822;2023-06-10T03:49:15;6.57;;;3.77;;
8419;SDS011;4247;48.550;8.822;2023-06-10T03:51:42;5.20;;;4.27;;
8419;SDS011;4247;48.550;8.822;2023-06-10T03:54:10;4.17;;;3.77;;
8419;SDS011;4247;48.550;8.822;2023-06-10T03:56:37;4.33;;;3.90;;
8419;SDS011;4247;48.550;8.822;2023-06-10T03:59:03;4.07;;;3.37;;
8419;SDS011;4247;48.550;8.822;2023-06-10T04:01:30;3.23;;;2.90;;
8419;SDS011;4247;48.550;8.822;2023-06-10T04:03:58;3.67;;;3.37;;
8419;SDS011;4247;48.550;8.822;2023-06-10T04:06:26;3.73;;;3.37;;
8419;SDS011;4247;48.550;8.822;2023-06-10T04:08:54;4.50;;;4.03;;
8419;SDS011;4247;48.550;8.822;2023-06-10T04:11:23;3.40;;;2.87;;
8419;SDS011;4247;48.550;8.822;2023-06-10T04:13:49;3.73;;;3.00;;
8419;SDS011;4247;48.550;8.822;2023-06-10T04:16:16;5.30;;;3.70;;
8419;SDS011;4247;48.550;8.822;2023-06-10T04:18:43;3.00;;;2.70;;
8419;SDS011;4247;48.550;8.822;2023-06-10T04:21:09;4.07;;;3.77;;
8419;SDS011;4247;48.550;8.822;2023-06-10T04:23:36;3.60;;;3.30;;
8419;SDS011;4247;48.550;8.822;2023-06-10T04:26:04;3.73;;;3.10;;
8419;SDS011;4247;48.550;8.822;2023-06-10T04:28:33;3.00;;;2.70;;
8419;SDS011;4247;48.550;8.822;2023-06-10T04:31:01;3.20;;;3.00;;
8419;SDS011;4247;48.550;8.822;2023-06-10T04:33:29;3.00;;;2.80;;
8419;SDS011;4247;48.550;8.822;2023-06-10T04:35:56;6.30;;;4.00;;
8419;SDS011;4247;48.550;8.822;2023-06-10T04:38:22;3.47;;;2.90;;
8419;SDS011;4247;48.550;8.822;2023-06-10T04:40:49;2.63;;;2.53;;
8419;SDS011;4247;48.550;8.822;2023-06-10T04:43:16;3.17;;;2.80;;
8419;SDS011;4247;48.550;8.822;2023-06-10T04:45:44;3.90;;;3.10;;
8419;SDS011;4247;48.550;8.822;2023-06-10T04:48:12;3.00;;;2.80;;
8419;SDS011;4247;48.550;8.822;2023-06-10T04:50:38;3.87;;;3.47;;
8419;SDS011;4247;48.550;8.822;2023-06-10T04:53:05;3.93;;;2.60;;
8419;SDS011;4247;48.550;8.822;2023-06-10T04:55:32;4.80;;;2.87;;
8419;SDS011;4247;48.550;8.822;2023-06-10T04:57:59;5.80;;;3.33;;
8419;SDS011;4247;48.550;8.822;2023-06-10T05:00:26;5.63;;;3.30;;
8419;SDS011;4247;48.550;8.822;2023-06-10T05:02:54;3.10;;;2.90;;
8419;SDS011;4247;48.550;8.822;2023-06-10T05:05:21;3.13;;;2.90;;
8419;SDS011;4247;48.550;8.822;2023-06-10T05:07:48;2.87;;;2.67;;
8419;SDS011;4247;48.550;8.822;2023-06-10T05:10:14;3.33;;;3.00;;
8419;SDS011;4247;48.550;8.822;2023-06-10T05:12:41;5.03;;;2.77;;
8419;SDS011;4247;48.550;8.822;2023-06-10T05:15:08;4.97;;;2.80;;
8419;SDS011;4247;48.550;8.822;2023-06-10T05:17:36;3.00;;;2.80;;
8419;SDS011;4247;48.550;8.822;2023-06-10T05:20:04;2.50;;;2.30;;
8419;SDS011;4247;48.550;8.822;2023-06-10T05:22:33;3.07;;;2.87;;
8419;SDS011;4247;48.550;8.822;2023-06-10T05:25:00;6.87;;;2.73;;
8419;SDS011;4247;48.550;8.822;2023-06-10T05:27:27;4.83;;;3.00;;
8419;SDS011;4247;48.550;8.822;2023-06-10T05:29:54;3.57;;;3.27;;
8419;SDS011;4247;48.550;8.822;2023-06-10T05:32:21;3.83;;;2.83;;
8419;SDS011;4247;48.550;8.822;2023-06-10T05:34:48;5.53;;;2.93;;
8419;SDS011;4247;48.550;8.822;2023-06-10T05:37:16;4.10;;;3.23;;
8419;SDS011;4247;48.550;8.822;2023-06-10T05:39:42;3.40;;;3.20;;
8419;SDS011;4247;48.550;8.822;2023-06-10T05:42:10;4.50;;;3.50;;
8419;SDS011;4247;48.550;8.822;2023-06-10T05:44:37;4.37;;;3.13;;
8419;SDS011;4247;48.550;8.822;2023-06-10T05:47:04;4.47;;;3.70;;
8419;SDS011;4247;48.550;8.822;2023-06-10T05:49:31;4.87;;;3.50;;
8419;SDS011;4247;48.550;8.822;2023-06-10T05:51:57;3.53;;;2.63;;
8419;SDS011;4247;48.550;8.822;2023-06-10T05:54:25;3.20;;;2.97;;
8419;SDS011;4247;48.550;8.822;2023-06-10T05:56:52;3.47;;;2.80;;
8419;SDS011;4247;48.550;8.822;2023-06-10T05:59:19;3.83;;;3.13;;
8419;SDS011;4247;48.550;8.822;2023-06-10T06:01:47;3.33;;;3.03;;
8419;SDS011;4247;48.550;8.822;2023-06-10T06:04:14;3.77;;;3.07;;
8419;SDS011;4247;48.550;8.822;2023-06-10T06:06:41;4.03;;;3.67;;
8419;SDS011;4247;48.550;8.822;2023-06-10T06:09:08;3.50;;;3.20;;
8419;SDS011;4247;48.550;8.822;2023-06-10T06:11:36;4.37;;;2.93;;
8419;SDS011;4247;48.550;8.822;2023-06-10T06:14:02;4.33;;;2.57;;
8419;SDS011;4247;48.550;8.822;2023-06-10T06:16:29;4.60;;;3.20;;
8419;SDS011;4247;48.550;8.822;2023-06-10T06:18:56;3.17;;;2.97;;
8419;SDS011;4247;48.550;8.822;2023-06-10T06:21:23;3.50;;;3.30;;
8419;SDS011;4247;48.550;8.822;2023-06-10T06:23:49;4.10;;;3.10;;
8419;SDS011;4247;48.550;8.822;2023-06-10T06:26:16;3.57;;;2.97;;
8419;SDS011;4247;48.550;8.822;2023-06-10T06:28:44;2.80;;;2.60;;
8419;SDS011;4247;48.550;8.822;2023-06-10T06:31:11;3.77;;;3.43;;
8419;SDS011;4247;48.550;8.822;2023-06-10T06:33:37;3.10;;;2.57;;
8419;SDS011;4247;48.550;8.822;2023-06-10T06:36:05;6.83;;;3.27;;
8419;SDS011;4247;48.550;8.822;2023-06-10T06:38:31;3.23;;;3.00;;
8419;SDS011;4247;48.550;8.822;2023-06-10T06:40:58;4.53;;;3.17;;
8419;SDS011;4247;48.550;8.822;2023-06-10T06:43:27;3.33;;;3.03;;
8419;SDS011;4247;48.550;8.822;2023-06-10T06:45:56;4.87;;;3.77;;
8419;SDS011;4247;48.550;8.822;2023-06-10T06:48:23;3.13;;;2.93;;
8419;SDS011;4247;48.550;8.822;2023-06-10T06:50:50;3.07;;;2.87;;
8419;SDS011;4247;48.550;8.822;2023-06-10T06:53:16;3.23;;;2.93;;
8419;SDS011;4247;48.550;8.822;2023-06-10T06:55:43;3.83;;;3.33;;
8419;SDS011;4247;48.550;8.822;2023-06-10T06:58:10;3.00;;;2.80;;
8419;SDS011;4247;48.550;8.822;2023-06-10T07:00:37;3.53;;;3.23;;
8419;SDS011;4247;48.550;8.822;2023-06-10T07:03:05;2.80;;;2.60;;
8419;SDS011;4247;48.550;8.822;2023-06-10T07:05:31;3.30;;;3.10;;
8419;SDS011;4247;48.550;8.822;2023-06-10T07:07:58;4.30;;;3.20;;
8419;SDS011;4247;48.550;8.822;2023-06-10T07:10:25;3.10;;;2.80;;
8419;SDS011;4247;48.550;8.822;2023-06-10T07:12:52;3.40;;;3.10;;
8419;SDS011;4247;48.550;8.822;2023-06-10T07:15:19;5.43;;;3.23;;
8419;SDS011;4247;48.550;8.822;2023-06-10T07:17:46;2.93;;;2.60;;
8419;SDS011;4247;48.550;8.822;2023-06-10T07:20:14;9.70;;;3.30;;
8419;SDS011;4247;48.550;8.822;2023-06-10T07:22:41;3.50;;;3.20;;
8419;SDS011;4247;48.550;8.822;2023-06-10T07:25:08;3.67;;;2.93;;
8419;SDS011;4247;48.550;8.822;2023-06-10T07:27:35;3.57;;;3.27;;
8419;SDS011;4247;48.550;8.822;2023-06-10T07:30:02;3.67;;;3.33;;
8419;SDS011;4247;48.550;8.822;2023-06-10T07:32:29;3.00;;;2.80;;
8419;SDS011;4247;48.550;8.822;2023-06-10T07:34:56;3.47;;;3.17;;
8419;SDS011;4247;48.550;8.822;2023-06-10T07:37:24;3.50;;;3.20;;
8419;SDS011;4247;48.550;8.822;2023-06-10T07:39:51;3.93;;;3.53;;
8419;SDS011;4247;48.550;8.822;2023-06-10T07:42:18;3.23;;;2.93;;
8419;SDS011;4247;48.550;8.822;2023-06-10T07:44:44;3.13;;;2.87;;
8419;SDS011;4247;48.550;8.822;2023-06-10T07:47:13;3.50;;;3.20;;
8419;SDS011;4247;48.550;8.822;2023-06-10T07:49:39;2.80;;;2.60;;
8419;SDS011;4247;48.550;8.822;2023-06-10T07:52:07;4.43;;;4.03;;
8419;SDS011;4247;48.550;8.822;2023-06-10T07:54:35;2.77;;;2.53;;
8419;SDS011;4247;48.550;8.822;2023-06-10T07:57:02;3.07;;;2.87;;
8419;SDS011;4247;48.550;8.822;2023-06-10T07:59:29;3.33;;;3.13;;
8419;SDS011;4247;48.550;8.822;2023-06-10T08:01:56;3.10;;;2.90;;
8419;SDS011;4247;48.550;8.822;2023-06-10T08:04:23;4.63;;;3.07;;
8419;SDS011;4247;48.550;8.822;2023-06-10T08:06:49;3.73;;;2.80;;
8419;SDS011;4247;48.550;8.822;2023-06-10T08:09:16;3.37;;;3.07;;
8419;SDS011;4247;48.550;8.822;2023-06-10T08:11:45;5.53;;;3.03;;
8419;SDS011;4247;48.550;8.822;2023-06-10T08:14:13;3.40;;;3.10;;
8419;SDS011;4247;48.550;8.822;2023-06-10T08:16:39;3.20;;;3.00;;
8419;SDS011;4247;48.550;8.822;2023-06-10T08:19:07;2.90;;;2.70;;
8419;SDS011;4247;48.550;8.822;2023-06-10T08:21:34;2.50;;;2.30;;
8419;SDS011;4247;48.550;8.822;2023-06-10T08:24:02;3.00;;;2.47;;
8419;SDS011;4247;48.550;8.822;2023-06-10T08:26:28;2.53;;;2.33;;
8419;SDS011;4247;48.550;8.822;2023-06-10T08:28:56;2.50;;;2.30;;
8419;SDS011;4247;48.550;8.822;2023-06-10T08:31:23;2.43;;;2.20;;
8419;SDS011;4247;48.550;8.822;2023-06-10T08:33:50;2.13;;;2.03;;
8419;SDS011;4247;48.550;8.822;2023-06-10T08:36:17;3.23;;;2.43;;
8419;SDS011;4247;48.550;8.822;2023-06-10T08:38:44;4.70;;;2.70;;
8419;SDS011;4247;48.550;8.822;2023-06-10T08:41:11;2.67;;;2.47;;
8419;SDS011;4247;48.550;8.822;2023-06-10T08:43:42;2.20;;;2.03;;
8419;SDS011;4247;48.550;8.822;2023-06-10T08:46:11;3.23;;;2.90;;
8419;SDS011;4247;48.550;8.822;2023-06-10T08:48:41;2.83;;;2.63;;
8419;SDS011;4247;48.550;8.822;2023-06-10T08:51:09;2.43;;;2.23;;
8419;SDS011;4247;48.550;8.822;2023-06-10T08:53:37;1.87;;;1.77;;
8419;SDS011;4247;48.550;8.822;2023-06-10T08:56:08;2.73;;;2.53;;
8419;SDS011;4247;48.550;8.822;2023-06-10T08:58:35;2.00;;;1.90;;
8419;SDS011;4247;48.550;8.822;2023-06-10T09:01:06;2.60;;;2.40;;
8419;SDS011;4247;48.550;8.822;2023-06-10T09:03:34;2.47;;;2.00;;
8419;SDS011;4247;48.550;8.822;2023-06-10T09:06:03;2.73;;;2.40;;
8419;SDS011;4247;48.550;8.822;2023-06-10T09:08:31;1.80;;;1.70;;
8419;SDS011;4247;48.550;8.822;2023-06-10T09:10:59;2.27;;;2.07;;
8419;SDS011;4247;48.550;8.822;2023-06-10T09:13:26;1.90;;;1.63;;
8419;SDS011;4247;48.550;8.822;2023-06-10T09:15:53;1.97;;;1.87;;
8419;SDS011;4247;48.550;8.822;2023-06-10T09:18:21;1.80;;;1.63;;
8419;SDS011;4247;48.550;8.822;2023-06-10T09:20:49;1.90;;;1.80;;
8419;SDS011;4247;48.550;8.822;2023-06-10T09:23:16;5.80;;;1.67;;
8419;SDS011;4247;48.550;8.822;2023-06-10T09:25:43;1.97;;;1.80;;
8419;SDS011;4247;48.550;8.822;2023-06-10T09:28:12;1.47;;;1.37;;
8419;SDS011;4247;48.550;8.822;2023-06-10T09:30:40;1.60;;;1.50;;
8419;SDS011;4247;48.550;8.822;2023-06-10T09:33:09;2.17;;;2.07;;
8419;SDS011;4247;48.550;8.822;2023-06-10T09:35:44;2.17;;;2.07;;
8419;SDS011;4247;48.550;8.822;2023-06-10T09:38:13;1.93;;;1.83;;
8419;SDS011;4247;48.550;8.822;2023-06-10T09:40:48;3.10;;;2.10;;
8419;SDS011;4247;48.550;8.822;2023-06-10T09:43:16;1.93;;;1.63;;
8419;SDS011;4247;48.550;8.822;2023-06-10T09:45:42;2.00;;;1.90;;
8419;SDS011;4247;48.550;8.822;2023-06-10T09:48:09;2.20;;;1.80;;
8419;SDS011;4247;48.550;8.822;2023-06-10T09:50:41;1.90;;;1.80;;
8419;SDS011;4247;48.550;8.822;2023-06-10T09:53:08;1.53;;;1.43;;
8419;SDS011;4247;48.550;8.822;2023-06-10T09:55:38;2.23;;;1.53;;
8419;SDS011;4247;48.550;8.822;2023-06-10T09:58:06;2.23;;;2.03;;
8419;SDS011;4247;48.550;8.822;2023-06-10T10:00:34;3.37;;;1.90;;
8419;SDS011;4247;48.550;8.822;2023-06-10T10:03:00;2.10;;;2.00;;
8419;SDS011;4247;48.550;8.822;2023-06-10T10:05:28;2.17;;;2.07;;
8419;SDS011;4247;48.550;8.822;2023-06-10T10:07:55;4.20;;;1.93;;
8419;SDS011;4247;48.550;8.822;2023-06-10T10:10:22;4.23;;;2.07;;
8419;SDS011;4247;48.550;8.822;2023-06-10T10:12:52;3.03;;;2.77;;
8419;SDS011;4247;48.550;8.822;2023-06-10T10:15:21;2.27;;;2.00;;
8419;SDS011;4247;48.550;8.822;2023-06-10T10:17:52;1.70;;;1.60;;
8419;SDS011;4247;48.550;8.822;2023-06-10T10:20:22;3.80;;;2.37;;
8419;SDS011;4247;48.550;8.822;2023-06-10T10:22:53;4.23;;;2.00;;
8419;SDS011;4247;48.550;8.822;2023-06-10T10:25:23;1.67;;;1.57;;
8419;SDS011;4247;48.550;8.822;2023-06-10T10:27:54;2.23;;;1.70;;
8419;SDS011;4247;48.550;8.822;2023-06-10T10:30:24;1.90;;;1.80;;
8419;SDS011;4247;48.550;8.822;2023-06-10T10:32:58;2.93;;;1.63;;
8419;SDS011;4247;48.550;8.822;2023-06-10T10:35:30;1.90;;;1.80;;
8419;SDS011;4247;48.550;8.822;2023-06-10T10:37:59;2.37;;;2.17;;
8419;SDS011;4247;48.550;8.822;2023-06-10T10:40:26;1.80;;;1.70;;
8419;SDS011;4247;48.550;8.822;2023-06-10T10:42:56;2.73;;;2.00;;
8419;SDS011;4247;48.550;8.822;2023-06-10T10:45:26;2.00;;;1.80;;
8419;SDS011;4247;48.550;8.822;2023-06-10T10:47:54;2.07;;;1.87;;
8419;SDS011;4247;48.550;8.822;2023-06-10T10:50:22;2.70;;;2.07;;
8419;SDS011;4247;48.550;8.822;2023-06-10T10:52:53;10.13;;;1.83;;
8419;SDS011;4247;48.550;8.822;2023-06-10T10:55:21;3.50;;;1.87;;
8419;SDS011;4247;48.550;8.822;2023-06-10T10:57:53;2.53;;;1.90;;
8419;SDS011;4247;48.550;8.822;2023-06-10T11:00:26;1.93;;;1.83;;
8419;SDS011;4247;48.550;8.822;2023-06-10T11:02:54;1.83;;;1.73;;
8419;SDS011;4247;48.550;8.822;2023-06-10T11:05:31;1.90;;;1.80;;
8419;SDS011;4247;48.550;8.822;2023-06-10T11:08:01;1.90;;;1.80;;
8419;SDS011;4247;48.550;8.822;2023-06-10T11:10:30;1.27;;;1.20;;
8419;SDS011;4247;48.550;8.822;2023-06-10T11:12:58;2.37;;;1.63;;
8419;SDS011;4247;48.550;8.822;2023-06-10T11:15:26;3.50;;;1.80;;
8419;SDS011;4247;48.550;8.822;2023-06-10T11:18:07;1.93;;;1.70;;
8419;SDS011;4247;48.550;8.822;2023-06-10T11:20:43;2.13;;;1.93;;
8419;SDS011;4247;48.550;8.822;2023-06-10T11:23:39;1.67;;;1.53;;
8419;SDS011;4247;48.550;8.822;2023-06-10T11:29:03;4.80;;;1.87;;
8419;SDS011;4247;48.550;8.822;2023-06-10T11:31:37;2.20;;;1.83;;
8419;SDS011;4247;48.550;8.822;2023-06-10T11:34:09;2.47;;;1.40;;
8419;SDS011;4247;48.550;8.822;2023-06-10T11:36:37;1.73;;;1.30;;
8419;SDS011;4247;48.550;8.822;2023-06-10T11:39:07;1.87;;;1.77;;
8419;SDS011;4247;48.550;8.822;2023-06-10T11:41:35;1.70;;;1.60;;
8419;SDS011;4247;48.550;8.822;2023-06-10T11:44:04;3.37;;;1.73;;
8419;SDS011;4247;48.550;8.822;2023-06-10T11:46:34;2.50;;;1.30;;
8419;SDS011;4247;48.550;8.822;2023-06-10T11:49:02;3.33;;;1.93;;
8419;SDS011;4247;48.550;8.822;2023-06-10T11:51:32;2.57;;;1.73;;
8419;SDS011;4247;48.550;8.822;2023-06-10T11:54:00;1.63;;;1.53;;
8419;SDS011;4247;48.550;8.822;2023-06-10T11:56:27;1.47;;;1.37;;
8419;SDS011;4247;48.550;8.822;2023-06-10T11:58:55;1.93;;;1.40;;
8419;SDS011;4247;48.550;8.822;2023-06-10T12:01:24;1.70;;;1.60;;
8419;SDS011;4247;48.550;8.822;2023-06-10T12:04:00;1.83;;;1.73;;
8419;SDS011;4247;48.550;8.822;2023-06-10T12:06:37;1.77;;;1.67;;
8419;SDS011;4247;48.550;8.822;2023-06-10T12:09:05;1.70;;;1.60;;
8419;SDS011;4247;48.550;8.822;2023-06-10T12:11:32;1.50;;;1.40;;
8419;SDS011;4247;48.550;8.822;2023-06-10T12:13:59;2.80;;;1.77;;
8419;SDS011;4247;48.550;8.822;2023-06-10T12:16:27;2.20;;;2.00;;
8419;SDS011;4247;48.550;8.822;2023-06-10T12:19:00;2.50;;;1.60;;
8419;SDS011;4247;48.550;8.822;2023-06-10T12:21:29;2.17;;;2.00;;
8419;SDS011;4247;48.550;8.822;2023-06-10T12:23:59;2.03;;;1.63;;
8419;SDS011;4247;48.550;8.822;2023-06-10T12:26:33;1.87;;;1.67;;
8419;SDS011;4247;48.550;8.822;2023-06-10T12:29:17;2.10;;;1.90;;
8419;SDS011;4247;48.550;8.822;2023-06-10T12:31:59;3.90;;;1.40;;
8419;SDS011;4247;48.550;8.822;2023-06-10T12:34:32;1.67;;;1.57;;
8419;SDS011;4247;48.550;8.822;2023-06-10T12:37:00;2.10;;;1.83;;
8419;SDS011;4247;48.550;8.822;2023-06-10T12:39:29;2.23;;;1.60;;
8419;SDS011;4247;48.550;8.822;2023-06-10T12:41:56;1.67;;;1.57;;
8419;SDS011;4247;48.550;8.822;2023-06-10T12:44:30;1.70;;;1.60;;
8419;SDS011;4247;48.550;8.822;2023-06-10T12:46:58;1.57;;;1.47;;
8419;SDS011;4247;48.550;8.822;2023-06-10T12:49:25;1.70;;;1.60;;
8419;SDS011;4247;48.550;8.822;2023-06-10T12:51:53;3.50;;;1.53;;
8419;SDS011;4247;48.550;8.822;2023-06-10T12:54:21;1.83;;;1.73;;
8419;SDS011;4247;48.550;8.822;2023-06-10T12:56:48;1.40;;;1.10;;
8419;SDS011;4247;48.550;8.822;2023-06-10T12:59:15;1.90;;;1.50;;
8419;SDS011;4247;48.550;8.822;2023-06-10T13:01:41;2.27;;;1.47;;
8419;SDS011;4247;48.550;8.822;2023-06-10T13:04:08;2.00;;;1.90;;
8419;SDS011;4247;48.550;8.822;2023-06-10T13:06:35;2.23;;;1.60;;
8419;SDS011;4247;48.550;8.822;2023-06-10T13:09:05;1.70;;;1.60;;
8419;SDS011;4247;48.550;8.822;2023-06-10T13:11:35;1.73;;;1.33;;
8419;SDS011;4247;48.550;8.822;2023-06-10T13:14:02;2.27;;;1.67;;
8419;SDS011;4247;48.550;8.822;2023-06-10T13:16:29;1.43;;;1.33;;
8419;SDS011;4247;48.550;8.822;2023-06-10T13:18:56;2.37;;;1.47;;
8419;SDS011;4247;48.550;8.822;2023-06-10T13:21:23;1.10;;;1.00;;
8419;SDS011;4247;48.550;8.822;2023-06-10T13:23:50;1.27;;;1.17;;
8419;SDS011;4247;48.550;8.822;2023-06-10T13:26:18;1.23;;;1.17;;
8419;SDS011;4247;48.550;8.822;2023-06-10T13:28:45;1.57;;;1.47;;
8419;SDS011;4247;48.550;8.822;2023-06-10T13:31:11;1.43;;;1.33;;
8419;SDS011;4247;48.550;8.822;2023-06-10T13:33:38;2.13;;;1.20;;
8419;SDS011;4247;48.550;8.822;2023-06-10T13:36:05;1.70;;;1.60;;
8419;SDS011;4247;48.550;8.822;2023-06-10T13:38:32;1.67;;;1.43;;
8419;SDS011;4247;48.550;8.822;2023-06-10T13:40:59;3.33;;;1.00;;
8419;SDS011;4247;48.550;8.822;2023-06-10T13:43:27;1.80;;;1.70;;
8419;SDS011;4247;48.550;8.822;2023-06-10T13:45:54;3.27;;;2.13;;
8419;SDS011;4247;48.550;8.822;2023-06-10T13:48:21;1.40;;;1.30;;
8419;SDS011;4247;48.550;8.822;2023-06-10T13:50:47;5.43;;;2.33;;
8419;SDS011;4247;48.550;8.822;2023-06-10T13:53:14;1.77;;;1.67;;
8419;SDS011;4247;48.550;8.822;2023-06-10T13:55:41;1.90;;;1.80;;
8419;SDS011;4247;48.550;8.822;2023-06-10T13:58:07;2.03;;;1.43;;
8419;SDS011;4247;48.550;8.822;2023-06-10T14:00:35;2.20;;;1.90;;
8419;SDS011;4247;48.550;8.822;2023-06-10T14:03:02;1.60;;;1.50;;
8419;SDS011;4247;48.550;8.822;2023-06-10T14:05:29;1.93;;;1.83;;
8419;SDS011;4247;48.550;8.822;2023-06-10T14:07:56;1.67;;;1.57;;
8419;SDS011;4247;48.550;8.822;2023-06-10T14:10:23;2.80;;;2.07;;
8419;SDS011;4247;48.550;8.822;2023-06-10T14:12:50;3.50;;;2.03;;
8419;SDS011;4247;48.550;8.822;2023-06-10T14:15:17;1.40;;;1.30;;
8419;SDS011;4247;48.550;8.822;2023-06-10T14:17:45;2.93;;;1.70;;
8419;SDS011;4247;48.550;8.822;2023-06-10T14:20:11;1.50;;;1.43;;
8419;SDS011;4247;48.550;8.822;2023-06-10T14:22:38;2.97;;;2.30;;
8419;SDS011;4247;48.550;8.822;2023-06-10T14:25:06;2.00;;;1.90;;
8419;SDS011;4247;48.550;8.822;2023-06-10T14:27:33;2.50;;;2.10;;
8419;SDS011;4247;48.550;8.822;2023-06-10T14:29:59;3.43;;;1.90;;
8419;SDS011;4247;48.550;8.822;2023-06-10T14:32:27;2.87;;;1.83;;
8419;SDS011;4247;48.550;8.822;2023-06-10T14:34:55;1.90;;;1.80;;
8419;SDS011;4247;48.550;8.822;2023-06-10T14:37:21;1.73;;;1.63;;
8419;SDS011;4247;48.550;8.822;2023-06-10T14:39:48;1.50;;;1.40;;
8419;SDS011;4247;48.550;8.822;2023-06-10T14:42:15;1.63;;;1.53;;
8419;SDS011;4247;48.550;8.822;2023-06-10T14:44:41;1.43;;;1.33;;
8419;SDS011;4247;48.550;8.822;2023-06-10T14:47:08;2.10;;;1.93;;
8419;SDS011;4247;48.550;8.822;2023-06-10T14:49:35;1.63;;;1.40;;
8419;SDS011;4247;48.550;8.822;2023-06-10T14:52:03;1.80;;;1.70;;
8419;SDS011;4247;48.550;8.822;2023-06-10T14:54:30;3.53;;;1.70;;
8419;SDS011;4247;48.550;8.822;2023-06-10T14:56:57;2.37;;;2.17;;
8419;SDS011;4247;48.550;8.822;2023-06-10T14:59:23;2.33;;;1.60;;
8419;SDS011;4247;48.550;8.822;2023-06-10T15:01:50;2.53;;;1.63;;
8419;SDS011;4247;48.550;8.822;2023-06-10T15:04:17;1.93;;;1.80;;
8419;SDS011;4247;48.550;8.822;2023-06-10T15:06:43;2.80;;;1.90;;
8419;SDS011;4247;48.550;8.822;2023-06-10T15:09:11;6.47;;;1.77;;
8419;SDS011;4247;48.550;8.822;2023-06-10T15:11:38;1.73;;;1.63;;
8419;SDS011;4247;48.550;8.822;2023-06-10T15:14:05;2.20;;;2.00;;
8419;SDS011;4247;48.550;8.822;2023-06-10T15:16:31;1.83;;;1.73;;
8419;SDS011;4247;48.550;8.822;2023-06-10T15:18:58;2.13;;;1.70;;
8419;SDS011;4247;48.550;8.822;2023-06-10T15:21:25;1.87;;;1.50;;